createdAt,value
2019-04-27T00:00:14.271Z,989.93
2019-04-27T00:01:13.893Z,989.93
2019-04-27T00:02:13.791Z,989.87
2019-04-27T00:03:13.713Z,989.94
2019-04-27T00:04:16.255Z,989.93
2019-04-27T00:05:14.311Z,989.93
2019-04-27T00:06:13.610Z,989.90
2019-04-27T00:07:16.994Z,989.91
2019-04-27T00:08:13.953Z,989.92
2019-04-27T00:09:14.471Z,989.92
2019-04-27T00:10:13.744Z,989.90
2019-04-27T00:11:13.706Z,989.91
2019-04-27T00:12:16.524Z,989.89
2019-04-27T00:13:15.037Z,989.88
2019-04-27T00:14:15.060Z,989.91
2019-04-27T00:15:13.177Z,989.92
2019-04-27T00:16:13.456Z,989.89
2019-04-27T00:17:12.968Z,989.94
2019-04-27T00:18:13.997Z,989.94
2019-04-27T00:19:13.183Z,989.93
2019-04-27T00:20:13.124Z,989.93
2019-04-27T00:21:13.464Z,989.94
2019-04-27T00:22:12.951Z,989.93
2019-04-27T00:23:13.274Z,989.89
2019-04-27T00:24:13.530Z,989.85
2019-04-27T00:25:13.117Z,989.85
2019-04-27T00:26:13.098Z,989.84
2019-04-27T00:27:13.390Z,989.82
2019-04-27T00:28:12.867Z,989.83
2019-04-27T00:29:11.644Z,989.82
2019-04-27T00:30:11.558Z,989.82
2019-04-27T00:31:13.147Z,989.83
2019-04-27T00:32:12.915Z,989.82
2019-04-27T00:33:11.319Z,989.81
2019-04-27T00:34:11.238Z,989.80
2019-04-27T00:35:11.159Z,989.81
2019-04-27T00:36:11.080Z,989.84
2019-04-27T00:37:10.998Z,989.79
2019-04-27T00:38:10.920Z,989.77
2019-04-27T00:39:10.839Z,989.82
2019-04-27T00:40:10.761Z,989.79
2019-04-27T00:41:10.678Z,989.76
2019-04-27T00:42:10.597Z,989.77
2019-04-27T00:43:10.520Z,989.73
2019-04-27T00:44:10.438Z,989.72
2019-04-27T00:45:10.358Z,989.68
2019-04-27T00:46:10.278Z,989.64
2019-04-27T00:47:10.197Z,989.68
2019-04-27T00:48:10.116Z,989.64
2019-04-27T00:49:10.038Z,989.62
2019-04-27T00:50:09.955Z,989.61
2019-04-27T00:51:09.877Z,989.59
2019-04-27T00:52:09.796Z,989.59
2019-04-27T00:53:09.715Z,989.61
2019-04-27T00:54:09.634Z,989.60
2019-04-27T00:55:09.555Z,989.61
2019-04-27T00:56:09.474Z,989.64
2019-04-27T00:57:09.393Z,989.62
2019-04-27T00:58:09.312Z,989.62
2019-04-27T00:59:09.239Z,989.65
2019-04-27T01:00:09.151Z,989.61
2019-04-27T01:01:09.070Z,989.65
2019-04-27T01:02:08.991Z,989.61
2019-04-27T01:03:08.913Z,989.61
2019-04-27T01:04:08.828Z,989.61
2019-04-27T01:05:08.748Z,989.64
2019-04-27T01:06:08.666Z,989.63
2019-04-27T01:07:08.586Z,989.61
2019-04-27T01:08:08.504Z,989.60
2019-04-27T01:09:08.433Z,989.58
2019-04-27T01:10:08.342Z,989.56
2019-04-27T01:11:08.266Z,989.55
2019-04-27T01:12:08.183Z,989.58
2019-04-27T01:13:08.102Z,989.55
2019-04-27T01:14:08.022Z,989.54
2019-04-27T01:15:07.941Z,989.55
2019-04-27T01:16:08.619Z,989.53
2019-04-27T01:17:08.885Z,989.51
2019-04-27T01:18:14.455Z,989.49
2019-04-27T01:19:08.479Z,989.45
2019-04-27T01:20:08.666Z,989.50
2019-04-27T01:21:09.197Z,989.43
2019-04-27T01:22:08.738Z,989.44
2019-04-27T01:23:08.890Z,989.46
2019-04-27T01:24:08.901Z,989.44
2019-04-27T01:25:08.803Z,989.45
2019-04-27T01:26:07.052Z,989.45
2019-04-27T01:27:08.690Z,989.42
2019-04-27T01:28:06.891Z,989.42
2019-04-27T01:29:06.810Z,989.42
2019-04-27T01:30:06.730Z,989.38
2019-04-27T01:31:06.649Z,989.39
2019-04-27T01:32:06.569Z,989.36
2019-04-27T01:33:06.488Z,989.34
2019-04-27T01:34:06.407Z,989.38
2019-04-27T01:35:06.325Z,989.37
2019-04-27T01:36:06.244Z,989.37
2019-04-27T01:37:06.166Z,989.36
2019-04-27T01:38:06.083Z,989.36
2019-04-27T01:39:06.003Z,989.34
2019-04-27T01:40:05.921Z,989.34
2019-04-27T01:41:05.840Z,989.33
2019-04-27T01:42:05.760Z,989.32
2019-04-27T01:43:05.680Z,989.34
2019-04-27T01:44:05.648Z,989.35
2019-04-27T01:45:05.516Z,989.36
2019-04-27T01:46:05.436Z,989.34
2019-04-27T01:47:05.356Z,989.34
2019-04-27T01:48:05.274Z,989.32
2019-04-27T01:49:05.195Z,989.34
2019-04-27T01:50:05.118Z,989.30
2019-04-27T01:51:05.034Z,989.31
2019-04-27T01:52:04.952Z,989.31
2019-04-27T01:53:04.871Z,989.29
2019-04-27T01:54:04.791Z,989.27
2019-04-27T01:55:04.710Z,989.22
2019-04-27T01:56:04.630Z,989.23
2019-04-27T01:57:04.549Z,989.22
2019-04-27T01:58:04.471Z,989.28
2019-04-27T01:59:04.385Z,989.19
2019-04-27T02:00:04.304Z,989.19
2019-04-27T02:01:04.224Z,989.21
2019-04-27T02:02:04.144Z,989.23
2019-04-27T02:03:04.062Z,989.23
2019-04-27T02:04:03.981Z,989.24
2019-04-27T02:05:03.901Z,989.25
2019-04-27T02:06:03.821Z,989.23
2019-04-27T02:07:03.739Z,989.23
2019-04-27T02:08:03.658Z,989.20
2019-04-27T02:09:03.577Z,989.22
2019-04-27T02:10:03.497Z,989.21
2019-04-27T02:11:03.416Z,989.21
2019-04-27T02:12:03.334Z,989.21
2019-04-27T02:13:03.254Z,989.19
2019-04-27T02:14:03.173Z,989.17
2019-04-27T02:15:03.092Z,989.17
2019-04-27T02:16:03.011Z,989.19
2019-04-27T02:17:02.931Z,989.15
2019-04-27T02:18:02.850Z,989.17
2019-04-27T02:19:02.768Z,989.24
2019-04-27T02:20:02.690Z,989.19
2019-04-27T02:21:02.607Z,989.22
2019-04-27T02:22:02.532Z,989.22
2019-04-27T02:23:02.446Z,989.20
2019-04-27T02:24:02.363Z,989.21
2019-04-27T02:25:02.284Z,989.22
2019-04-27T02:26:02.203Z,989.24
2019-04-27T02:27:02.121Z,989.28
2019-04-27T02:28:02.040Z,989.25
2019-04-27T02:29:01.959Z,989.26
2019-04-27T02:30:01.886Z,989.25
2019-04-27T02:31:02.149Z,989.30
2019-04-27T02:32:03.017Z,989.29
2019-04-27T02:33:01.638Z,989.30
2019-04-27T02:34:01.556Z,989.26
2019-04-27T02:35:01.477Z,989.27
2019-04-27T02:36:01.410Z,989.30
2019-04-27T02:37:02.743Z,989.26
2019-04-27T02:38:01.232Z,989.29
2019-04-27T02:39:01.150Z,989.28
2019-04-27T02:40:01.070Z,989.28
2019-04-27T02:41:00.987Z,989.26
2019-04-27T02:42:00.907Z,989.25
2019-04-27T02:43:00.826Z,989.22
2019-04-27T02:44:01.821Z,989.22
2019-04-27T02:45:00.663Z,989.22
2019-04-27T02:46:00.645Z,989.22
2019-04-27T02:47:00.645Z,989.20
2019-04-27T02:48:00.419Z,989.22
2019-04-27T02:49:06.000Z,989.21
2019-04-27T02:50:00.735Z,989.19
2019-04-27T02:51:00.179Z,989.26
2019-04-27T02:52:00.095Z,989.23
2019-04-27T02:53:03.099Z,989.18
2019-04-27T02:54:00.478Z,989.22
2019-04-27T02:54:59.852Z,989.16
2019-04-27T02:55:59.772Z,989.21
2019-04-27T02:56:59.690Z,989.17
2019-04-27T02:57:59.926Z,989.16
2019-04-27T02:58:59.758Z,989.15
2019-04-27T03:00:00.140Z,989.17
2019-04-27T03:00:59.442Z,989.17
2019-04-27T03:02:00.809Z,989.19
2019-04-27T03:03:01.970Z,989.19
2019-04-27T03:04:00.355Z,989.23
2019-04-27T03:05:00.637Z,989.18
2019-04-27T03:05:59.834Z,989.22
2019-04-27T03:07:00.318Z,989.26
2019-04-27T03:07:59.647Z,989.22
2019-04-27T03:09:00.390Z,989.21
2019-04-27T03:09:59.682Z,989.25
2019-04-27T03:11:00.978Z,989.26
2019-04-27T03:11:59.492Z,989.21
2019-04-27T03:13:00.065Z,989.18
2019-04-27T03:13:59.851Z,989.21
2019-04-27T03:14:59.685Z,989.24
2019-04-27T03:16:00.442Z,989.16
2019-04-27T03:17:00.173Z,989.20
2019-04-27T03:17:59.707Z,989.23
2019-04-27T03:19:11.415Z,989.20
2019-04-27T03:19:59.736Z,989.24
2019-04-27T03:21:00.203Z,989.16
2019-04-27T03:21:59.307Z,989.17
2019-04-27T03:22:59.997Z,989.18
2019-04-27T03:23:57.496Z,989.12
2019-04-27T03:24:59.750Z,989.15
2019-04-27T03:25:57.331Z,989.16
2019-04-27T03:26:59.980Z,989.12
2019-04-27T03:27:57.169Z,989.10
2019-04-27T03:28:57.090Z,989.14
2019-04-27T03:29:59.554Z,989.13
2019-04-27T03:31:01.978Z,989.16
2019-04-27T03:31:56.874Z,989.16
2019-04-27T03:32:58.820Z,989.18
2019-04-27T03:34:03.198Z,989.16
2019-04-27T03:34:56.601Z,989.19
2019-04-27T03:35:56.519Z,989.15
2019-04-27T03:36:56.438Z,989.15
2019-04-27T03:37:56.367Z,989.10
2019-04-27T03:38:56.274Z,989.11
2019-04-27T03:39:56.196Z,989.09
2019-04-27T03:40:56.113Z,989.01
2019-04-27T03:41:56.031Z,988.99
2019-04-27T03:42:55.953Z,989.01
2019-04-27T03:43:55.867Z,988.99
2019-04-27T03:44:55.788Z,988.97
2019-04-27T03:45:55.706Z,988.92
2019-04-27T03:46:55.636Z,988.93
2019-04-27T03:47:55.542Z,988.98
2019-04-27T03:48:55.461Z,989.01
2019-04-27T03:49:55.395Z,989.04
2019-04-27T03:50:55.300Z,989.07
2019-04-27T03:51:55.217Z,989.05
2019-04-27T03:52:55.137Z,989.01
2019-04-27T03:53:57.247Z,988.99
2019-04-27T03:54:54.974Z,989.00
2019-04-27T03:55:54.897Z,989.02
2019-04-27T03:56:54.812Z,988.97
2019-04-27T03:57:54.729Z,988.90
2019-04-27T03:58:54.648Z,988.92
2019-04-27T03:59:54.572Z,988.96
2019-04-27T04:00:54.488Z,988.94
2019-04-27T04:01:54.406Z,988.93
2019-04-27T04:02:54.325Z,988.93
2019-04-27T04:03:54.241Z,988.89
2019-04-27T04:04:54.162Z,988.88
2019-04-27T04:05:54.080Z,988.92
2019-04-27T04:06:54.000Z,988.88
2019-04-27T04:07:53.920Z,988.89
2019-04-27T04:08:55.218Z,988.92
2019-04-27T04:09:53.755Z,988.94
2019-04-27T04:10:53.674Z,988.94
2019-04-27T04:11:53.592Z,988.97
2019-04-27T04:12:56.005Z,988.95
2019-04-27T04:13:53.428Z,988.97
2019-04-27T04:14:53.360Z,988.96
2019-04-27T04:15:53.266Z,988.93
2019-04-27T04:16:53.185Z,988.93
2019-04-27T04:17:53.104Z,988.95
2019-04-27T04:18:53.024Z,988.92
2019-04-27T04:19:57.470Z,988.91
2019-04-27T04:20:52.862Z,988.89
2019-04-27T04:21:52.780Z,988.88
2019-04-27T04:22:52.699Z,988.87
2019-04-27T04:23:52.618Z,988.86
2019-04-27T04:24:52.536Z,988.88
2019-04-27T04:25:52.457Z,988.89
2019-04-27T04:26:52.383Z,988.91
2019-04-27T04:27:52.292Z,988.93
2019-04-27T04:28:52.213Z,988.89
2019-04-27T04:29:52.131Z,988.86
2019-04-27T04:30:52.051Z,988.86
2019-04-27T04:31:51.970Z,988.86
2019-04-27T04:32:52.118Z,988.85
2019-04-27T04:33:51.806Z,988.78
2019-04-27T04:34:51.735Z,988.84
2019-04-27T04:35:51.657Z,988.87
2019-04-27T04:36:51.565Z,988.88
2019-04-27T04:37:52.945Z,988.88
2019-04-27T04:38:51.400Z,988.83
2019-04-27T04:39:53.523Z,988.82
2019-04-27T04:40:51.242Z,988.82
2019-04-27T04:41:51.275Z,988.80
2019-04-27T04:42:51.077Z,988.82
2019-04-27T04:43:50.993Z,988.76
2019-04-27T04:44:50.921Z,988.78
2019-04-27T04:45:50.832Z,988.73
2019-04-27T04:46:50.765Z,988.79
2019-04-27T04:47:50.675Z,988.78
2019-04-27T04:48:50.590Z,988.79
2019-04-27T04:50:07.057Z,988.80
2019-04-27T04:50:50.439Z,988.81
2019-04-27T04:51:50.546Z,988.79
2019-04-27T04:52:50.269Z,988.81
2019-04-27T04:53:51.909Z,988.82
2019-04-27T04:54:50.106Z,988.75
2019-04-27T04:55:50.023Z,988.85
2019-04-27T04:56:49.942Z,988.84
2019-04-27T04:57:49.862Z,988.79
2019-04-27T04:58:49.849Z,988.84
2019-04-27T04:59:51.404Z,988.77
2019-04-27T05:00:50.343Z,988.76
2019-04-27T05:01:50.049Z,988.78
2019-04-27T05:02:49.456Z,988.78
2019-04-27T05:03:49.374Z,988.75
2019-04-27T05:04:49.307Z,988.76
2019-04-27T05:05:50.109Z,988.76
2019-04-27T05:06:50.711Z,988.79
2019-04-27T05:07:49.049Z,988.87
2019-04-27T05:08:49.451Z,988.86
2019-04-27T05:09:48.889Z,988.81
2019-04-27T05:10:49.684Z,988.84
2019-04-27T05:11:48.832Z,988.87
2019-04-27T05:12:50.419Z,988.84
2019-04-27T05:13:49.441Z,988.82
2019-04-27T05:14:49.012Z,988.84
2019-04-27T05:15:48.813Z,988.83
2019-04-27T05:16:48.896Z,988.80
2019-04-27T05:17:48.409Z,988.79
2019-04-27T05:18:49.522Z,988.77
2019-04-27T05:19:49.104Z,988.76
2019-04-27T05:20:48.647Z,988.78
2019-04-27T05:21:49.152Z,988.79
2019-04-27T05:22:49.137Z,988.75
2019-04-27T05:23:48.721Z,988.79
2019-04-27T05:24:49.249Z,988.77
2019-04-27T05:25:49.209Z,988.77
2019-04-27T05:26:48.704Z,988.79
2019-04-27T05:27:47.427Z,988.84
2019-04-27T05:28:49.182Z,988.78
2019-04-27T05:29:48.848Z,988.83
2019-04-27T05:30:48.707Z,988.78
2019-04-27T05:31:48.803Z,988.81
2019-04-27T05:32:47.028Z,988.84
2019-04-27T05:33:46.944Z,988.81
2019-04-27T05:34:46.863Z,988.85
2019-04-27T05:35:48.950Z,988.83
2019-04-27T05:36:48.993Z,988.84
2019-04-27T05:37:46.622Z,988.82
2019-04-27T05:38:46.877Z,988.82
2019-04-27T05:39:46.457Z,988.84
2019-04-27T05:40:46.378Z,988.83
2019-04-27T05:41:46.297Z,988.86
2019-04-27T05:42:50.517Z,988.82
2019-04-27T05:43:46.135Z,988.88
2019-04-27T05:44:46.680Z,988.94
2019-04-27T05:45:45.977Z,988.91
2019-04-27T05:46:45.896Z,988.88
2019-04-27T05:47:48.516Z,988.89
2019-04-27T05:48:45.732Z,988.93
2019-04-27T05:49:45.652Z,988.91
2019-04-27T05:50:46.039Z,988.84
2019-04-27T05:51:47.918Z,988.95
2019-04-27T05:52:45.411Z,988.91
2019-04-27T05:53:45.329Z,988.88
2019-04-27T05:54:45.250Z,988.91
2019-04-27T05:55:45.170Z,988.86
2019-04-27T05:56:45.098Z,988.86
2019-04-27T05:57:45.007Z,988.90
2019-04-27T05:58:44.928Z,988.83
2019-04-27T05:59:44.847Z,988.81
2019-04-27T06:00:44.765Z,988.80
2019-04-27T06:01:44.685Z,988.77
2019-04-27T06:02:44.606Z,988.73
2019-04-27T06:03:44.526Z,988.74
2019-04-27T06:04:44.444Z,988.77
2019-04-27T06:05:44.367Z,988.77
2019-04-27T06:06:44.285Z,988.77
2019-04-27T06:07:44.203Z,988.74
2019-04-27T06:08:44.123Z,988.77
2019-04-27T06:09:44.043Z,988.78
2019-04-27T06:10:43.968Z,988.78
2019-04-27T06:11:43.883Z,988.82
2019-04-27T06:12:43.802Z,988.83
2019-04-27T06:13:44.073Z,988.85
2019-04-27T06:14:43.643Z,988.84
2019-04-27T06:15:43.563Z,988.84
2019-04-27T06:16:43.482Z,988.85
2019-04-27T06:17:43.402Z,988.85
2019-04-27T06:18:43.674Z,988.87
2019-04-27T06:19:43.939Z,988.84
2019-04-27T06:20:53.292Z,988.80
2019-04-27T06:21:43.083Z,988.76
2019-04-27T06:22:43.004Z,988.87
2019-04-27T06:23:42.974Z,988.81
2019-04-27T06:24:42.844Z,988.78
2019-04-27T06:25:42.765Z,988.82
2019-04-27T06:26:42.687Z,988.80
2019-04-27T06:27:42.606Z,988.79
2019-04-27T06:28:42.525Z,988.75
2019-04-27T06:29:42.449Z,988.80
2019-04-27T06:30:42.366Z,988.73
2019-04-27T06:31:42.286Z,988.69
2019-04-27T06:32:42.207Z,988.74
2019-04-27T06:33:42.127Z,988.67
2019-04-27T06:34:42.050Z,988.74
2019-04-27T06:35:41.969Z,988.73
2019-04-27T06:36:41.890Z,988.73
2019-04-27T06:37:41.810Z,988.69
2019-04-27T06:38:41.732Z,988.71
2019-04-27T06:39:41.654Z,988.69
2019-04-27T06:40:41.574Z,988.70
2019-04-27T06:41:41.496Z,988.80
2019-04-27T06:42:41.415Z,988.75
2019-04-27T06:43:41.341Z,988.70
2019-04-27T06:44:41.261Z,988.83
2019-04-27T06:45:41.179Z,988.78
2019-04-27T06:46:41.100Z,988.81
2019-04-27T06:47:41.479Z,988.79
2019-04-27T06:48:40.940Z,988.87
2019-04-27T06:49:40.860Z,988.87
2019-04-27T06:50:40.783Z,988.91
2019-04-27T06:51:40.701Z,988.92
2019-04-27T06:52:40.623Z,988.86
2019-04-27T06:53:40.544Z,988.89
2019-04-27T06:55:40.385Z,988.91
2019-04-27T06:56:40.306Z,988.84
2019-04-27T06:57:41.238Z,988.86
2019-04-27T06:58:40.743Z,988.95
2019-04-27T06:59:40.108Z,988.92
2019-04-27T07:00:39.993Z,988.94
2019-04-27T07:01:39.916Z,988.92
2019-04-27T07:02:43.471Z,988.87
2019-04-27T07:03:39.760Z,988.91
2019-04-27T07:04:42.303Z,988.87
2019-04-27T07:05:39.606Z,988.86
2019-04-27T07:06:52.842Z,988.84
2019-04-27T07:07:39.630Z,988.84
2019-04-27T07:08:40.128Z,988.87
2019-04-27T07:12:04.937Z,988.85
2019-04-27T07:13:07.480Z,988.83
2019-04-27T07:14:04.782Z,988.78
2019-04-27T07:15:04.731Z,988.74
2019-04-27T07:16:04.626Z,988.79
2019-04-27T07:17:04.550Z,988.74
2019-04-27T07:18:04.474Z,988.83
2019-04-27T07:19:04.397Z,988.79
2019-04-27T07:20:04.323Z,988.89
2019-04-27T07:21:16.178Z,988.74
2019-04-27T07:22:04.169Z,988.84
2019-04-27T07:23:04.091Z,988.85
2019-04-27T07:24:04.016Z,988.78
2019-04-27T07:25:03.941Z,988.82
2019-04-27T07:26:03.868Z,988.76
2019-04-27T07:27:03.788Z,988.80
2019-04-27T07:28:03.713Z,988.76
2019-04-27T07:29:03.642Z,988.72
2019-04-27T07:30:03.565Z,988.73
2019-04-27T07:31:03.485Z,988.75
2019-04-27T07:32:03.413Z,988.74
2019-04-27T07:33:03.336Z,988.70
2019-04-27T07:34:03.261Z,988.73
2019-04-27T07:35:03.186Z,988.76
2019-04-27T07:36:03.111Z,988.79
2019-04-27T07:37:03.036Z,988.79
2019-04-27T07:38:02.961Z,988.73
2019-04-27T07:39:02.889Z,988.80
2019-04-27T07:40:02.810Z,988.72
2019-04-27T07:41:02.738Z,988.74
2019-04-27T07:42:02.663Z,988.65
2019-04-27T07:43:02.589Z,988.74
2019-04-27T07:44:02.514Z,988.75
2019-04-27T07:45:02.438Z,988.74
2019-04-27T07:46:02.364Z,988.68
2019-04-27T07:47:02.286Z,988.71
2019-04-27T07:48:02.212Z,988.67
2019-04-27T07:49:02.140Z,988.65
2019-04-27T07:50:02.081Z,988.72
2019-04-27T07:51:01.988Z,988.66
2019-04-27T07:52:01.913Z,988.66
2019-04-27T07:53:01.840Z,988.73
2019-04-27T07:54:01.765Z,988.67
2019-04-27T07:55:01.689Z,988.67
2019-04-27T07:56:01.615Z,988.69
2019-04-27T07:57:01.538Z,988.63
2019-04-27T07:58:01.466Z,988.59
2019-04-27T07:59:01.389Z,988.59
2019-04-27T08:00:01.315Z,988.58
2019-04-27T08:01:01.241Z,988.53
2019-04-27T08:02:01.172Z,988.61
2019-04-27T08:03:01.093Z,988.50
2019-04-27T08:04:01.016Z,988.55
2019-04-27T08:05:00.944Z,988.53
2019-04-27T08:06:00.867Z,988.57
2019-04-27T08:07:00.791Z,988.53
2019-04-27T08:08:00.723Z,988.52
2019-04-27T08:09:00.644Z,988.61
2019-04-27T08:10:01.554Z,988.53
2019-04-27T08:11:00.494Z,988.55
2019-04-27T08:12:00.418Z,988.48
2019-04-27T08:13:00.346Z,988.49
2019-04-27T08:14:00.270Z,988.50
2019-04-27T08:15:00.220Z,988.46
2019-04-27T08:16:00.122Z,988.51
2019-04-27T08:17:00.046Z,988.53
2019-04-27T08:17:59.972Z,988.54
2019-04-27T08:19:00.131Z,988.53
2019-04-27T08:19:59.822Z,988.56
2019-04-27T08:20:59.750Z,988.64
2019-04-27T08:22:01.541Z,988.54
2019-04-27T08:23:01.321Z,988.55
2019-04-27T08:23:59.527Z,988.57
2019-04-27T08:24:59.642Z,988.59
2019-04-27T08:25:59.379Z,988.56
2019-04-27T08:26:59.473Z,988.53
2019-04-27T08:28:00.288Z,988.55
2019-04-27T08:28:59.155Z,988.60
2019-04-27T08:29:59.084Z,988.62
2019-04-27T08:31:00.384Z,988.62
2019-04-27T08:31:58.935Z,988.64
2019-04-27T08:32:59.350Z,988.63
2019-04-27T08:34:00.091Z,988.67
2019-04-27T08:34:59.473Z,988.65
2019-04-27T08:35:59.140Z,988.59
2019-04-27T08:37:00.727Z,988.66
2019-04-27T08:37:59.393Z,988.67
2019-04-27T08:38:58.891Z,988.67
2019-04-27T08:39:59.224Z,988.60
2019-04-27T08:40:59.214Z,988.67
2019-04-27T08:41:59.479Z,988.59
2019-04-27T08:42:59.219Z,988.60
2019-04-27T08:43:58.702Z,988.63
2019-04-27T08:44:59.442Z,988.57
2019-04-27T08:45:58.907Z,988.59
2019-04-27T08:46:59.507Z,988.60
2019-04-27T08:47:59.501Z,988.66
2019-04-27T08:48:58.677Z,988.65
2019-04-27T08:49:59.097Z,988.59
2019-04-27T08:50:59.234Z,988.62
2019-04-27T08:52:01.367Z,988.64
2019-04-27T08:52:57.379Z,988.67
2019-04-27T08:53:59.003Z,988.66
2019-04-27T08:54:57.231Z,988.70
2019-04-27T08:55:59.055Z,988.65
2019-04-27T08:56:57.082Z,988.61
2019-04-27T08:57:58.572Z,988.64
2019-04-27T08:58:56.932Z,988.63
2019-04-27T08:59:56.857Z,988.62
2019-04-27T09:00:56.785Z,988.57
2019-04-27T09:01:58.595Z,988.56
2019-04-27T09:02:56.633Z,988.64
2019-04-27T09:03:56.559Z,988.51
2019-04-27T09:04:56.484Z,988.55
2019-04-27T09:05:56.412Z,988.58
2019-04-27T09:06:56.395Z,988.51
2019-04-27T09:07:56.262Z,988.53
2019-04-27T09:08:56.186Z,988.56
2019-04-27T09:09:56.112Z,988.51
2019-04-27T09:10:56.042Z,988.54
2019-04-27T09:11:55.963Z,988.56
2019-04-27T09:12:55.887Z,988.56
2019-04-27T09:13:55.812Z,988.57
2019-04-27T09:14:55.739Z,988.52
2019-04-27T09:15:55.662Z,988.55
2019-04-27T09:17:00.279Z,988.55
2019-04-27T09:17:55.513Z,988.54
2019-04-27T09:18:55.438Z,988.56
2019-04-27T09:19:55.363Z,988.57
2019-04-27T09:20:55.287Z,988.56
2019-04-27T09:21:55.215Z,988.51
2019-04-27T09:22:55.136Z,988.52
2019-04-27T09:23:55.061Z,988.49
2019-04-27T09:24:54.986Z,988.47
2019-04-27T09:25:54.911Z,988.53
2019-04-27T09:26:54.835Z,988.47
2019-04-27T09:27:54.759Z,988.46
2019-04-27T09:28:54.684Z,988.59
2019-04-27T09:29:54.609Z,988.44
2019-04-27T09:31:37.017Z,988.48
2019-04-27T09:32:40.791Z,988.54
2019-04-27T09:33:36.869Z,988.53
2019-04-27T09:34:36.789Z,988.50
2019-04-27T09:35:36.713Z,988.50
2019-04-27T09:36:37.536Z,988.44
2019-04-27T09:37:36.706Z,988.52
2019-04-27T09:38:36.485Z,988.50
2019-04-27T09:39:36.411Z,988.41
2019-04-27T09:40:36.335Z,988.49
2019-04-27T09:41:36.664Z,988.54
2019-04-27T09:42:38.293Z,988.40
2019-04-27T09:43:36.751Z,988.41
2019-04-27T09:44:37.111Z,988.29
2019-04-27T09:45:37.193Z,988.44
2019-04-27T09:46:36.413Z,988.38
2019-04-27T09:47:36.859Z,988.46
2019-04-27T09:48:36.206Z,988.34
2019-04-27T09:49:36.634Z,988.41
2019-04-27T09:50:36.066Z,988.42
2019-04-27T09:51:36.331Z,988.39
2019-04-27T09:52:35.836Z,988.39
2019-04-27T09:53:36.405Z,988.34
2019-04-27T09:54:36.580Z,988.35
2019-04-27T09:55:36.877Z,988.26
2019-04-27T09:56:36.379Z,988.27
2019-04-27T09:57:36.474Z,988.24
2019-04-27T09:58:36.637Z,988.23
2019-04-27T09:59:34.901Z,988.26
2019-04-27T10:00:36.445Z,988.22
2019-04-27T10:01:36.110Z,988.28
2019-04-27T10:02:36.501Z,988.28
2019-04-27T10:03:36.034Z,988.29
2019-04-27T10:04:35.579Z,988.29
2019-04-27T10:05:34.451Z,988.33
2019-04-27T10:06:36.231Z,988.30
2019-04-27T10:07:35.848Z,988.23
2019-04-27T10:08:34.225Z,988.33
2019-04-27T10:09:34.150Z,988.25
2019-04-27T10:10:34.074Z,988.16
2019-04-27T10:11:35.495Z,988.29
2019-04-27T10:12:34.459Z,988.30
2019-04-27T10:13:33.850Z,988.32
2019-04-27T10:14:33.774Z,988.30
2019-04-27T10:15:35.541Z,988.32
2019-04-27T10:16:33.625Z,988.24
2019-04-27T10:17:33.552Z,988.27
2019-04-27T10:18:33.479Z,988.31
2019-04-27T10:19:33.401Z,988.30
2019-04-27T10:20:38.301Z,988.28
2019-04-27T10:21:33.252Z,988.32
2019-04-27T10:22:41.241Z,988.27
2019-04-27T10:23:33.102Z,988.25
2019-04-27T10:24:33.027Z,988.28
2019-04-27T10:25:32.952Z,988.27
2019-04-27T10:26:32.876Z,988.32
2019-04-27T10:27:32.803Z,988.25
2019-04-27T10:28:32.728Z,988.25
2019-04-27T10:29:32.653Z,988.24
2019-04-27T10:30:32.579Z,988.27
2019-04-27T10:31:32.505Z,988.17
2019-04-27T10:32:32.431Z,988.20
2019-04-27T10:33:32.354Z,988.13
2019-04-27T10:34:32.280Z,988.25
2019-04-27T10:35:32.206Z,988.16
2019-04-27T10:36:32.130Z,988.15
2019-04-27T10:37:32.055Z,988.13
2019-04-27T10:38:31.989Z,988.15
2019-04-27T10:39:31.907Z,988.04
2019-04-27T10:40:31.836Z,988.08
2019-04-27T10:41:31.758Z,988.07
2019-04-27T10:42:31.683Z,988.05
2019-04-27T10:43:31.609Z,988.00
2019-04-27T10:44:31.535Z,988.01
2019-04-27T10:45:31.460Z,988.03
2019-04-27T10:46:31.384Z,988.02
2019-04-27T10:47:31.313Z,988.07
2019-04-27T10:48:31.237Z,987.99
2019-04-27T10:49:31.162Z,988.02
2019-04-27T10:50:31.086Z,987.98
2019-04-27T10:51:31.012Z,987.98
2019-04-27T10:52:30.938Z,987.96
2019-04-27T10:53:30.863Z,987.95
2019-04-27T10:54:30.786Z,987.98
2019-04-27T10:55:30.713Z,987.89
2019-04-27T10:56:30.638Z,988.04
2019-04-27T10:57:30.564Z,987.98
2019-04-27T10:58:30.487Z,987.99
2019-04-27T10:59:30.414Z,987.98
2019-04-27T11:00:30.339Z,987.94
2019-04-27T11:01:30.265Z,987.96
2019-04-27T11:02:30.190Z,987.88
2019-04-27T11:04:17.604Z,987.91
2019-04-27T11:05:17.528Z,987.94
2019-04-27T11:06:17.454Z,987.89
2019-04-27T11:07:17.380Z,988.03
2019-04-27T11:08:17.304Z,987.88
2019-04-27T11:09:17.231Z,987.90
2019-04-27T11:10:17.155Z,987.87
2019-04-27T11:11:17.082Z,987.83
2019-04-27T11:12:17.007Z,987.82
2019-04-27T11:13:16.932Z,987.88
2019-04-27T11:14:16.857Z,987.76
2019-04-27T11:15:16.784Z,987.87
2019-04-27T11:16:16.710Z,987.83
2019-04-27T11:17:16.637Z,987.83
2019-04-27T11:18:16.784Z,987.74
2019-04-27T11:19:17.017Z,987.88
2019-04-27T11:20:16.411Z,987.86
2019-04-27T11:21:16.338Z,987.83
2019-04-27T11:22:16.265Z,987.84
2019-04-27T11:23:16.487Z,987.83
2019-04-27T11:24:16.112Z,987.98
2019-04-27T11:25:16.513Z,987.92
2019-04-27T11:26:16.091Z,987.92
2019-04-27T11:27:15.887Z,987.95
2019-04-27T11:28:15.838Z,988.01
2019-04-27T11:29:15.743Z,987.93
2019-04-27T11:30:15.778Z,987.91
2019-04-27T11:31:17.293Z,987.87
2019-04-27T11:32:15.915Z,987.84
2019-04-27T11:33:16.218Z,987.87
2019-04-27T11:34:15.366Z,987.87
2019-04-27T11:35:15.707Z,987.99
2019-04-27T11:36:16.916Z,987.90
2019-04-27T11:37:15.145Z,987.85
2019-04-27T11:38:16.617Z,987.79
2019-04-27T11:39:16.270Z,987.92
2019-04-27T11:40:14.925Z,987.83
2019-04-27T11:41:16.157Z,987.87
2019-04-27T11:42:14.785Z,987.90
2019-04-27T11:43:16.064Z,987.83
2019-04-27T11:44:15.288Z,987.72
2019-04-27T11:45:14.561Z,987.67
2019-04-27T11:46:16.274Z,987.79
2019-04-27T11:47:16.095Z,987.61
2019-04-27T11:48:16.036Z,987.67
2019-04-27T11:49:15.619Z,987.66
2019-04-27T11:50:14.196Z,987.58
2019-04-27T11:51:17.104Z,987.51
2019-04-27T11:52:15.670Z,987.62
2019-04-27T11:53:20.724Z,987.53
2019-04-27T11:54:13.907Z,987.57
2019-04-27T11:55:13.831Z,987.52
2019-04-27T11:56:13.757Z,987.63
2019-04-27T11:57:13.685Z,987.49
2019-04-27T11:58:13.611Z,987.55
2019-04-27T11:59:13.539Z,987.60
2019-04-27T12:00:13.464Z,987.58
2019-04-27T12:01:13.389Z,987.57
2019-04-27T12:02:13.316Z,987.54
2019-04-27T12:03:13.242Z,987.49
2019-04-27T12:05:13.097Z,987.58
2019-04-27T12:06:13.024Z,987.44
2019-04-27T12:07:12.949Z,987.55
2019-04-27T12:08:12.877Z,987.46
2019-04-27T12:09:12.805Z,987.45
2019-04-27T12:10:13.272Z,987.49
2019-04-27T12:13:30.489Z,987.34
2019-04-27T12:15:20.088Z,987.41
2019-04-27T12:16:20.017Z,987.41
2019-04-27T12:17:19.941Z,987.39
2019-04-27T12:20:12.480Z,987.34
2019-04-27T12:21:09.784Z,987.37
2019-04-27T12:22:09.711Z,987.32
2019-04-27T12:23:09.638Z,987.38
2019-04-27T12:24:09.595Z,987.33
2019-04-27T12:25:09.495Z,987.35
2019-04-27T12:26:09.419Z,987.30
2019-04-27T12:27:09.344Z,987.38
2019-04-27T12:28:09.271Z,987.41
2019-04-27T12:29:09.196Z,987.39
2019-04-27T12:30:12.019Z,987.41
2019-04-27T12:31:09.211Z,987.40
2019-04-27T12:32:08.972Z,987.36
2019-04-27T12:33:08.902Z,987.24
2019-04-27T12:34:08.820Z,987.23
2019-04-27T12:35:08.745Z,987.28
2019-04-27T12:36:08.671Z,987.32
2019-04-27T12:37:08.597Z,987.20
2019-04-27T12:38:08.519Z,987.20